createdAt,value
2022-08-18T00:03:27.368Z,55.83
2022-08-18T00:06:56.789Z,55.97
2022-08-18T00:10:18.966Z,55.96
2022-08-18T00:13:40.727Z,56.51
2022-08-18T00:17:05.161Z,56.28
2022-08-18T00:20:29.132Z,56.38
2022-08-18T00:23:52.901Z,56.61
2022-08-18T00:27:14.671Z,56.90
2022-08-18T00:30:42.279Z,57.38
2022-08-18T00:34:03.999Z,57.99
2022-08-18T00:37:25.682Z,57.52
2022-08-18T00:40:49.799Z,57.34
2022-08-18T00:44:11.346Z,57.33
2022-08-18T00:47:42.621Z,57.67
2022-08-18T00:51:11.599Z,57.28
2022-08-18T00:54:34.877Z,57.82
2022-08-18T00:58:11.866Z,58.67
2022-08-18T01:01:35.055Z,58.69
2022-08-18T01:05:05.675Z,58.54
2022-08-18T01:08:29.855Z,58.21
2022-08-18T01:11:53.750Z,58.56
2022-08-18T01:15:28.873Z,59.03
2022-08-18T01:19:11.223Z,58.85
2022-08-18T01:22:32.817Z,57.79
2022-08-18T01:26:00.211Z,58.26
2022-08-18T01:29:21.768Z,58.45
2022-08-18T01:32:46.015Z,58.62
2022-08-18T01:36:19.344Z,58.87
2022-08-18T01:41:11.210Z,58.80
2022-08-18T01:43:22.612Z,59.27
2022-08-18T01:46:46.624Z,59.83
2022-08-18T01:50:11.194Z,59.71
2022-08-18T01:53:35.680Z,59.46
2022-08-18T01:56:57.543Z,59.63
2022-08-18T02:00:19.354Z,60.29
2022-08-18T02:03:44.883Z,60.07
2022-08-18T02:07:10.992Z,59.88
2022-08-18T02:10:33.776Z,59.55
2022-08-18T02:13:56.713Z,59.29
2022-08-18T02:17:20.597Z,59.47
2022-08-18T02:20:44.734Z,59.37
2022-08-18T02:24:06.801Z,59.21
2022-08-18T02:27:29.126Z,58.89
2022-08-18T02:30:51.821Z,58.39
2022-08-18T02:34:13.532Z,58.58
2022-08-18T02:37:35.437Z,58.95
2022-08-18T02:41:00.378Z,59.60
2022-08-18T02:44:24.364Z,60.08
2022-08-18T02:47:51.584Z,60.30
2022-08-18T02:51:16.295Z,60.30
2022-08-18T02:54:37.961Z,60.32
2022-08-18T02:58:02.521Z,60.10
2022-08-18T03:01:31.653Z,60.70
2022-08-18T03:05:02.694Z,60.51
2022-08-18T03:08:24.199Z,60.89
2022-08-18T03:11:50.307Z,61.08
2022-08-18T03:15:12.949Z,61.42
2022-08-18T03:18:38.009Z,62.08
2022-08-18T03:22:02.795Z,61.79
2022-08-18T03:25:27.155Z,62.06
2022-08-18T03:28:51.272Z,62.47
2022-08-18T03:32:12.832Z,62.84
2022-08-18T03:35:37.875Z,63.22
2022-08-18T03:39:03.517Z,63.46
2022-08-18T03:42:25.087Z,63.58
2022-08-18T03:45:46.757Z,63.56
2022-08-18T03:49:09.041Z,64.22
2022-08-18T03:52:33.114Z,64.22
2022-08-18T03:55:54.669Z,64.79
2022-08-18T03:59:23.464Z,64.64
2022-08-18T04:02:45.104Z,64.83
2022-08-18T04:06:10.830Z,64.42
2022-08-18T04:09:38.225Z,64.20
2022-08-18T04:13:05.448Z,64.55
2022-08-18T04:16:38.378Z,64.76
2022-08-18T04:20:00.100Z,64.55
2022-08-18T04:23:28.476Z,64.38
2022-08-18T04:26:53.716Z,65.06
2022-08-18T04:30:18.508Z,64.86
2022-08-18T04:33:41.457Z,64.84
2022-08-18T04:37:04.198Z,64.27
2022-08-18T04:40:28.090Z,64.43
2022-08-18T04:43:52.682Z,65.08
2022-08-18T04:47:15.037Z,64.83
2022-08-18T04:50:37.441Z,64.61
2022-08-18T04:54:00.910Z,64.60
2022-08-18T04:57:26.240Z,64.03
2022-08-18T05:00:57.726Z,63.93
2022-08-18T05:04:21.462Z,64.11
2022-08-18T05:07:46.205Z,64.04
2022-08-18T05:11:10.150Z,63.65
2022-08-18T05:14:33.255Z,64.04
2022-08-18T05:18:01.400Z,64.05
2022-08-18T05:21:27.470Z,63.57
2022-08-18T05:24:53.830Z,63.60
2022-08-18T05:28:16.520Z,62.75
2022-08-18T05:31:40.426Z,62.91
2022-08-18T05:35:10.372Z,62.94
2022-08-18T05:38:56.131Z,63.37
2022-08-18T05:42:25.728Z,61.94
2022-08-18T05:45:54.545Z,61.83
2022-08-18T05:49:16.534Z,62.17
2022-08-18T05:53:14.024Z,62.03
2022-08-18T05:56:47.015Z,61.81
2022-08-18T06:00:13.904Z,60.52
2022-08-18T06:04:09.323Z,60.11
2022-08-18T06:07:44.373Z,58.91
2022-08-18T06:11:06.648Z,58.59
2022-08-18T06:14:42.176Z,58.60
2022-08-18T06:18:44.626Z,57.29
2022-08-18T06:22:27.040Z,56.35
2022-08-18T06:26:09.335Z,55.84
2022-08-18T06:30:05.095Z,55.31
2022-08-18T06:33:50.648Z,54.70
2022-08-18T06:37:56.084Z,52.32
2022-08-18T06:41:40.721Z,52.69
2022-08-18T06:45:13.902Z,53.44
2022-08-18T06:48:50.093Z,52.83
2022-08-18T06:52:36.209Z,51.60
2022-08-18T06:55:57.936Z,50.96
2022-08-18T06:59:34.143Z,51.21
2022-08-18T07:03:18.109Z,51.16
2022-08-18T07:06:41.397Z,50.56
2022-08-18T07:10:06.902Z,49.99
2022-08-18T07:13:31.580Z,49.69
2022-08-18T07:17:22.254Z,49.14
2022-08-18T07:21:04.128Z,48.98
2022-08-18T07:24:38.820Z,48.48
2022-08-18T07:28:02.852Z,47.80
2022-08-18T07:31:49.153Z,47.13
2022-08-18T07:35:13.047Z,47.45
2022-08-18T07:39:06.247Z,47.25
2022-08-18T07:42:56.869Z,48.14
2022-08-18T07:46:33.188Z,48.04
2022-08-18T07:50:16.862Z,47.31
2022-08-18T07:53:59.419Z,46.61
2022-08-18T07:57:42.935Z,46.55
2022-08-18T08:01:23.227Z,47.11
2022-08-18T08:04:49.567Z,48.00
2022-08-18T08:08:29.888Z,46.91
2022-08-18T08:12:26.789Z,46.46
2022-08-18T08:16:03.935Z,45.89
2022-08-18T08:20:00.116Z,47.05
2022-08-18T08:23:29.368Z,45.51
2022-08-18T08:27:13.225Z,45.14
2022-08-18T08:31:13.566Z,43.85
2022-08-18T08:34:54.388Z,44.33
2022-08-18T08:38:43.101Z,42.94
2022-08-18T08:42:46.863Z,41.72
2022-08-18T08:46:23.886Z,42.38
2022-08-18T08:50:04.250Z,41.86
2022-08-18T08:53:54.899Z,42.66
2022-08-18T08:57:24.722Z,41.47
2022-08-18T09:00:51.710Z,41.76
2022-08-18T09:04:21.690Z,41.25
2022-08-18T09:08:10.469Z,39.56
2022-08-18T09:12:08.355Z,39.47
2022-08-18T09:15:41.170Z,38.76
2022-08-18T09:19:31.049Z,38.17
2022-08-18T09:23:13.565Z,40.88
2022-08-18T09:26:39.331Z,39.82
2022-08-18T09:30:25.455Z,38.57
2022-08-18T09:34:07.203Z,38.18
2022-08-18T09:38:10.144Z,37.54
2022-08-18T09:41:45.622Z,39.18
2022-08-18T09:49:30.698Z,37.43
2022-08-18T09:50:38.182Z,36.45
2022-08-18T09:53:16.238Z,35.73
2022-08-18T09:56:54.519Z,36.05
2022-08-18T10:04:16.272Z,36.66
2022-08-18T10:07:53.258Z,35.20
2022-08-18T10:11:23.297Z,35.33
2022-08-18T10:15:12.288Z,34.05
2022-08-18T10:18:42.248Z,35.37
2022-08-18T10:22:09.623Z,33.44
2022-08-18T10:25:33.722Z,33.36
2022-08-18T10:32:54.592Z,32.89
2022-08-18T10:36:38.666Z,33.60
2022-08-18T10:40:14.807Z,33.50
2022-08-18T10:47:33.469Z,33.55
2022-08-18T10:51:21.406Z,31.72
2022-08-18T10:54:59.739Z,32.29
2022-08-18T10:58:44.728Z,31.28
2022-08-18T11:02:15.409Z,31.77
2022-08-18T11:05:39.742Z,32.40
2022-08-18T11:09:02.165Z,30.83
2022-08-18T11:13:03.135Z,32.68
2022-08-18T11:16:35.417Z,30.87
2022-08-18T11:20:00.930Z,31.55
2022-08-18T11:23:25.965Z,29.67
2022-08-18T11:26:52.879Z,29.94
2022-08-18T11:30:20.777Z,30.19
2022-08-18T11:33:52.384Z,29.80
2022-08-18T11:37:27.421Z,28.47
2022-08-18T11:41:11.775Z,29.76
2022-08-18T11:44:38.280Z,28.31
2022-08-18T11:48:03.095Z,29.07
2022-08-18T11:51:32.165Z,29.16
2022-08-18T11:55:14.396Z,29.29
2022-08-18T11:58:50.783Z,27.81
2022-08-18T12:02:20.414Z,28.42
2022-08-18T12:06:19.433Z,26.91
2022-08-18T12:13:31.855Z,28.88
2022-08-18T12:16:55.086Z,28.57
2022-08-18T12:20:19.404Z,27.88
2022-08-18T12:23:49.483Z,29.41
2022-08-18T12:27:21.267Z,29.64
2022-08-18T12:30:43.508Z,28.27
2022-08-18T12:34:05.610Z,28.77
2022-08-18T12:37:58.124Z,29.30
2022-08-18T12:41:22.920Z,28.60
2022-08-18T12:44:47.848Z,28.70
2022-08-18T12:48:13.991Z,28.99
2022-08-18T12:51:39.551Z,28.56
2022-08-18T12:55:01.202Z,30.05
2022-08-18T12:58:27.610Z,29.12
2022-08-18T13:01:58.657Z,28.78
2022-08-18T13:05:26.408Z,28.44
2022-08-18T13:08:50.519Z,27.81
2022-08-18T13:12:17.236Z,27.65
2022-08-18T13:15:38.998Z,27.52
2022-08-18T13:19:07.971Z,29.06
2022-08-18T13:22:33.401Z,29.06
2022-08-18T13:26:01.758Z,28.42
2022-08-18T13:29:26.110Z,28.68
2022-08-18T13:33:00.378Z,29.32
2022-08-18T13:36:25.589Z,28.69
2022-08-18T13:39:50.648Z,29.43
2022-08-18T13:43:17.320Z,28.95
2022-08-18T13:46:45.754Z,28.93
2022-08-18T13:50:14.124Z,28.72
2022-08-18T13:53:50.662Z,30.02
2022-08-18T13:57:19.728Z,28.16
2022-08-18T14:00:45.045Z,28.30
2022-08-18T14:04:12.529Z,29.22
2022-08-18T14:07:37.162Z,29.74
2022-08-18T14:11:01.796Z,29.64
2022-08-18T14:14:23.697Z,29.86
2022-08-18T14:17:47.362Z,29.15
2022-08-18T14:21:28.579Z,28.30
2022-08-18T14:25:09.339Z,29.73
2022-08-18T14:28:34.202Z,29.94
2022-08-18T14:31:55.915Z,29.67
2022-08-18T14:35:33.478Z,29.90
2022-08-18T14:38:57.581Z,30.17
2022-08-18T14:42:41.423Z,30.40
2022-08-18T14:46:09.055Z,29.97
2022-08-18T14:49:33.219Z,30.28
2022-08-18T14:52:57.323Z,29.88
2022-08-18T14:56:28.391Z,29.61
2022-08-18T14:59:51.887Z,30.24
2022-08-18T15:03:14.074Z,30.04
2022-08-18T15:06:35.625Z,29.45
2022-08-18T15:10:15.339Z,30.02
2022-08-18T15:13:46.479Z,29.43
2022-08-18T15:17:11.799Z,28.76
2022-08-18T15:20:54.891Z,29.47
2022-08-18T15:24:37.649Z,29.68
2022-08-18T15:28:06.164Z,28.41
2022-08-18T15:31:57.928Z,28.41
2022-08-18T15:35:22.843Z,28.57
2022-08-18T15:38:46.671Z,28.82
2022-08-18T15:42:14.364Z,29.58
2022-08-18T15:45:43.177Z,29.14
2022-08-18T15:49:15.585Z,28.50
2022-08-18T15:52:37.448Z,28.15
2022-08-18T15:56:05.209Z,27.77
2022-08-18T15:59:34.135Z,27.78
2022-08-18T16:03:08.975Z,27.84
2022-08-18T16:06:41.672Z,27.90
2022-08-18T16:10:04.851Z,28.97
2022-08-18T16:13:29.358Z,28.70
2022-08-18T16:16:51.071Z,28.39
2022-08-18T16:20:14.468Z,28.69
2022-08-18T16:23:39.323Z,28.20
2022-08-18T16:27:00.896Z,27.33
2022-08-18T16:30:25.569Z,28.08
2022-08-18T16:33:53.501Z,27.86
2022-08-18T16:40:41.980Z,27.75
2022-08-18T16:44:03.824Z,28.54
2022-08-18T16:47:28.176Z,28.34
2022-08-18T16:50:52.696Z,29.63
2022-08-18T16:54:17.451Z,29.21
2022-08-18T16:58:01.458Z,29.27
2022-08-18T17:01:49.231Z,29.62
2022-08-18T17:05:12.294Z,29.58
2022-08-18T17:08:34.956Z,29.95
2022-08-18T17:11:56.781Z,30.35
2022-08-18T17:15:21.745Z,30.94
2022-08-18T17:18:46.424Z,31.10
2022-08-18T17:22:10.678Z,32.61
2022-08-18T17:25:37.822Z,33.48
2022-08-18T17:29:12.207Z,33.55
2022-08-18T17:32:58.039Z,34.47
2022-08-18T17:36:32.347Z,35.18
2022-08-18T17:40:02.191Z,35.26
2022-08-18T17:43:27.485Z,35.12
2022-08-18T17:46:52.414Z,35.19
2022-08-18T17:50:57.811Z,35.68
2022-08-18T17:54:23.518Z,34.25
2022-08-18T17:57:58.602Z,34.92
2022-08-18T18:01:20.599Z,36.40
2022-08-18T18:04:46.756Z,37.66
2022-08-18T18:08:09.639Z,38.70
2022-08-18T18:11:42.447Z,39.62
2022-08-18T18:15:13.439Z,40.73
2022-08-18T18:18:42.852Z,40.20
2022-08-18T18:22:10.259Z,39.26
2022-08-18T18:25:35.681Z,39.32
2022-08-18T18:29:15.584Z,40.19
2022-08-18T18:33:04.527Z,40.25
2022-08-18T18:36:47.090Z,39.73
2022-08-18T18:40:19.991Z,40.37
2022-08-18T18:43:47.346Z,40.90
2022-08-18T18:47:40.156Z,40.75
2022-08-18T18:51:10.441Z,40.44
2022-08-18T18:55:01.696Z,40.92
2022-08-18T18:59:01.612Z,41.41
2022-08-18T19:03:13.300Z,40.04
2022-08-18T19:06:50.917Z,38.87
2022-08-18T19:10:21.566Z,38.72
2022-08-18T19:13:55.127Z,38.72
2022-08-18T19:17:31.992Z,38.14
2022-08-18T19:22:02.342Z,38.47
2022-08-18T19:25:04.385Z,38.43
2022-08-18T19:29:12.850Z,38.37
2022-08-18T19:32:35.146Z,38.56
2022-08-18T19:35:59.616Z,38.68
2022-08-18T19:39:32.906Z,38.83
2022-08-18T19:43:17.398Z,39.00
2022-08-18T19:47:08.854Z,39.28
2022-08-18T19:50:35.193Z,39.23
2022-08-18T19:54:11.634Z,39.47
2022-08-18T19:58:08.622Z,39.74
2022-08-18T20:01:47.124Z,39.88
2022-08-18T20:05:21.597Z,40.14
2022-08-18T20:09:03.283Z,40.28
2022-08-18T20:12:51.612Z,40.32
2022-08-18T20:16:28.622Z,40.34
2022-08-18T20:20:18.214Z,40.46
2022-08-18T20:23:58.595Z,40.60
2022-08-18T20:27:36.032Z,40.59
2022-08-18T20:31:13.152Z,40.72
2022-08-18T20:34:46.723Z,40.79
2022-08-18T20:38:35.074Z,40.66
2022-08-18T20:41:59.857Z,40.76
2022-08-18T20:45:31.479Z,40.84
2022-08-18T20:49:08.851Z,40.88
2022-08-18T20:52:37.303Z,41.09
2022-08-18T20:56:31.458Z,41.24
2022-08-18T21:00:16.200Z,41.33
2022-08-18T21:03:48.524Z,41.23
2022-08-18T21:07:36.009Z,41.40
2022-08-18T21:11:11.993Z,41.58
2022-08-18T21:14:33.733Z,41.78
2022-08-18T21:18:04.634Z,41.91
2022-08-18T21:21:32.772Z,41.85
2022-08-18T21:24:54.468Z,42.05
2022-08-18T21:28:17.754Z,42.13
2022-08-18T21:32:08.062Z,42.48
2022-08-18T21:35:38.266Z,42.30
2022-08-18T21:39:16.612Z,42.46
2022-08-18T21:42:45.818Z,42.70
2022-08-18T21:46:11.263Z,42.72
2022-08-18T21:49:34.747Z,42.93
2022-08-18T21:53:16.155Z,42.75
2022-08-18T21:56:41.044Z,42.82
2022-08-18T22:00:31.176Z,42.79
2022-08-18T22:04:16.632Z,43.01
2022-08-18T22:07:48.606Z,43.23
2022-08-18T22:12:00.134Z,43.50
2022-08-18T22:15:30.759Z,43.67
2022-08-18T22:19:11.865Z,43.71
2022-08-18T22:22:53.608Z,43.92
2022-08-18T22:26:33.707Z,44.23
2022-08-18T22:30:05.072Z,44.32
2022-08-18T22:33:29.918Z,44.44
2022-08-18T22:36:56.076Z,44.76
2022-08-18T22:40:21.758Z,44.76
2022-08-18T22:43:44.030Z,46.06
2022-08-18T22:47:08.662Z,45.52
2022-08-18T22:50:32.698Z,46.20
2022-08-18T22:53:57.645Z,46.54
2022-08-18T22:57:19.537Z,46.37
2022-08-18T23:00:48.399Z,47.51
2022-08-18T23:04:13.197Z,47.39
2022-08-18T23:07:35.331Z,47.83
2022-08-18T23:10:57.132Z,48.00
2022-08-18T23:14:18.997Z,48.35
2022-08-18T23:17:44.473Z,48.19
2022-08-18T23:21:08.697Z,48.46
2022-08-18T23:24:33.769Z,48.18
2022-08-18T23:27:55.508Z,48.39
2022-08-18T23:31:17.270Z,49.38
2022-08-18T23:34:38.888Z,49.72
2022-08-18T23:38:03.651Z,49.66
2022-08-18T23:41:30.135Z,49.76
2022-08-18T23:44:51.847Z,49.95
2022-08-18T23:48:16.409Z,50.54
2022-08-18T23:51:49.142Z,49.84
2022-08-18T23:55:13.285Z,50.74
2022-08-18T23:58:34.838Z,50.60
